Phoenix, Arizona
Traffic Map
Current Weather Conditions
Phoenix, Arizona
Broken Clouds
Broken Clouds
39°
Feels Like: 39°
Wind Chill: 39° Ceiling: 23000
Heat Index: 39° Visibility: 10mi
Dew Point: Wind: 12mph
Humidity: 15% Direction: 270° (W)
Pressure: 29.71in Gusts: 0mph
Raw Report DataKPHX 240551Z 27010KT 10SM BKN230 39/08 A2971 RMK AO2 SLP038 T03890078 10444 20389 51014
Traffic Incident Summary
Active as of:
Severity:
Category:
InformationThere was an issue retrieving the traffic information for this location. Please try a different location or try again shortly.
Advertisements
Track Severe Weather on mobile